sensor_id;sensor_type;location;lat;lon;timestamp;pressure;altitude;pressure_sealevel;temperature;humidity
11830;BME280;5972;42.134;24.718;2022-12-29T00:01:30;100881.19;;;6.35;100.00
11830;BME280;5972;42.134;24.718;2022-12-29T00:03:57;100880.44;;;6.24;100.00
11830;BME280;5972;42.134;24.718;2022-12-29T00:06:24;100880.00;;;6.46;100.00
11830;BME280;5972;42.134;24.718;2022-12-29T00:08:52;100887.97;;;6.56;100.00
11830;BME280;5972;42.134;24.718;2022-12-29T00:11:20;100867.50;;;6.60;100.00
11830;BME280;5972;42.134;24.718;2022-12-29T00:13:48;100876.25;;;6.71;100.00
11830;BME280;5972;42.134;24.718;2022-12-29T00:16:33;100882.72;;;6.70;100.00
11830;BME280;5972;42.134;24.718;2022-12-29T00:19:01;100891.69;;;6.89;100.00
11830;BME280;5972;42.134;24.718;2022-12-29T00:21:28;100887.16;;;6.85;100.00
11830;BME280;5972;42.134;24.718;2022-12-29T00:24:17;100900.44;;;7.00;100.00
11830;BME280;5972;42.134;24.718;2022-12-29T00:27:10;100907.31;;;7.11;100.00
11830;BME280;5972;42.134;24.718;2022-12-29T00:29:51;100905.47;;;7.06;100.00
11830;BME280;5972;42.134;24.718;2022-12-29T00:32:36;100914.31;;;7.12;100.00
11830;BME280;5972;42.134;24.718;2022-12-29T00:35:25;100905.09;;;7.18;100.00
11830;BME280;5972;42.134;24.718;2022-12-29T00:37:54;100914.47;;;7.21;100.00
11830;BME280;5972;42.134;24.718;2022-12-29T00:40:40;100915.72;;;7.28;100.00
11830;BME280;5972;42.134;24.718;2022-12-29T00:43:30;100925.41;;;7.05;100.00
11830;BME280;5972;42.134;24.718;2022-12-29T00:46:14;100932.41;;;7.06;100.00
11830;BME280;5972;42.134;24.718;2022-12-29T00:48:41;100918.69;;;7.03;100.00
11830;BME280;5972;42.134;24.718;2022-12-29T00:51:25;100939.59;;;7.11;100.00
11830;BME280;5972;42.134;24.718;2022-12-29T00:53:52;100932.22;;;7.22;100.00
11830;BME280;5972;42.134;24.718;2022-12-29T00:56:20;100908.84;;;7.17;100.00
11830;BME280;5972;42.134;24.718;2022-12-29T00:58:46;100937.72;;;7.35;100.00
11830;BME280;5972;42.134;24.718;2022-12-29T01:01:13;100928.78;;;7.40;100.00
11830;BME280;5972;42.134;24.718;2022-12-29T01:03:40;100926.03;;;7.45;100.00
11830;BME280;5972;42.134;24.718;2022-12-29T01:06:09;100926.53;;;7.47;100.00
11830;BME280;5972;42.134;24.718;2022-12-29T01:08:36;100927.25;;;7.52;100.00
11830;BME280;5972;42.134;24.718;2022-12-29T01:11:05;100923.72;;;7.57;100.00
11830;BME280;5972;42.134;24.718;2022-12-29T01:13:33;100920.69;;;7.40;100.00
11830;BME280;5972;42.134;24.718;2022-12-29T01:16:00;100922.19;;;7.51;100.00
11830;BME280;5972;42.134;24.718;2022-12-29T01:18:28;100926.00;;;7.69;100.00
11830;BME280;5972;42.134;24.718;2022-12-29T01:20:58;100917.09;;;7.68;100.00
11830;BME280;5972;42.134;24.718;2022-12-29T01:23:25;100926.41;;;7.76;100.00
11830;BME280;5972;42.134;24.718;2022-12-29T01:25:52;100924.88;;;7.70;100.00
11830;BME280;5972;42.134;24.718;2022-12-29T01:28:19;100911.28;;;7.80;100.00
11830;BME280;5972;42.134;24.718;2022-12-29T01:30:47;100916.59;;;7.85;100.00
11830;BME280;5972;42.134;24.718;2022-12-29T01:33:14;100879.38;;;7.68;100.00
11830;BME280;5972;42.134;24.718;2022-12-29T01:35:41;100912.44;;;7.92;100.00
11830;BME280;5972;42.134;24.718;2022-12-29T01:38:08;100908.13;;;7.54;100.00
11830;BME280;5972;42.134;24.718;2022-12-29T01:40:43;100897.72;;;7.66;100.00
11830;BME280;5972;42.134;24.718;2022-12-29T01:43:11;100884.19;;;7.71;100.00
11830;BME280;5972;42.134;24.718;2022-12-29T01:45:40;100900.44;;;7.85;100.00
11830;BME280;5972;42.134;24.718;2022-12-29T01:48:11;100896.25;;;7.92;100.00
11830;BME280;5972;42.134;24.718;2022-12-29T01:50:42;100893.81;;;7.96;100.00
11830;BME280;5972;42.134;24.718;2022-12-29T01:53:15;100883.66;;;8.07;100.00
11830;BME280;5972;42.134;24.718;2022-12-29T01:55:46;100882.56;;;8.08;100.00
11830;BME280;5972;42.134;24.718;2022-12-29T01:58:15;100881.34;;;8.00;100.00
11830;BME280;5972;42.134;24.718;2022-12-29T02:00:44;100872.66;;;8.03;100.00
11830;BME280;5972;42.134;24.718;2022-12-29T02:03:13;100871.72;;;7.94;100.00
11830;BME280;5972;42.134;24.718;2022-12-29T02:05:45;100865.91;;;7.87;100.00
11830;BME280;5972;42.134;24.718;2022-12-29T02:08:13;100861.38;;;8.01;100.00
11830;BME280;5972;42.134;24.718;2022-12-29T02:10:42;100867.19;;;8.08;100.00
11830;BME280;5972;42.134;24.718;2022-12-29T02:13:09;100859.03;;;8.13;100.00
11830;BME280;5972;42.134;24.718;2022-12-29T02:15:47;100856.81;;;8.15;100.00
11830;BME280;5972;42.134;24.718;2022-12-29T02:18:27;100850.97;;;7.76;100.00
11830;BME280;5972;42.134;24.718;2022-12-29T02:24:39;100844.94;;;7.84;100.00
11830;BME280;5972;42.134;24.718;2022-12-29T02:30:40;100837.13;;;8.01;100.00
11830;BME280;5972;42.134;24.718;2022-12-29T02:33:19;100838.72;;;8.02;100.00
11830;BME280;5972;42.134;24.718;2022-12-29T02:35:54;100831.22;;;7.99;100.00
11830;BME280;5972;42.134;24.718;2022-12-29T02:38:34;100833.16;;;7.80;100.00
11830;BME280;5972;42.134;24.718;2022-12-29T02:41:12;100832.56;;;7.83;100.00
11830;BME280;5972;42.134;24.718;2022-12-29T02:43:49;100829.72;;;7.74;100.00
11830;BME280;5972;42.134;24.718;2022-12-29T02:46:22;100824.78;;;7.63;100.00
11830;BME280;5972;42.134;24.718;2022-12-29T02:48:57;100825.06;;;7.61;100.00
11830;BME280;5972;42.134;24.718;2022-12-29T02:51:32;100810.66;;;7.52;100.00
11830;BME280;5972;42.134;24.718;2022-12-29T02:54:01;100804.91;;;7.40;100.00
11830;BME280;5972;42.134;24.718;2022-12-29T02:56:46;100798.56;;;7.31;100.00
11830;BME280;5972;42.134;24.718;2022-12-29T02:59:13;100821.72;;;7.32;100.00
11830;BME280;5972;42.134;24.718;2022-12-29T03:01:52;100814.50;;;7.27;100.00
11830;BME280;5972;42.134;24.718;2022-12-29T03:04:49;100764.09;;;6.72;100.00
11830;BME280;5972;42.134;24.718;2022-12-29T03:07:22;100815.78;;;6.68;100.00
11830;BME280;5972;42.134;24.718;2022-12-29T03:09:55;100812.53;;;6.43;100.00
11830;BME280;5972;42.134;24.718;2022-12-29T03:12:30;100818.34;;;6.55;100.00
11830;BME280;5972;42.134;24.718;2022-12-29T03:15:21;100823.34;;;6.38;100.00
11830;BME280;5972;42.134;24.718;2022-12-29T03:18:12;100815.47;;;6.46;100.00
11830;BME280;5972;42.134;24.718;2022-12-29T03:20:45;100814.69;;;6.46;100.00
11830;BME280;5972;42.134;24.718;2022-12-29T03:23:17;100816.44;;;6.55;100.00
11830;BME280;5972;42.134;24.718;2022-12-29T03:25:48;100821.03;;;6.55;100.00
11830;BME280;5972;42.134;24.718;2022-12-29T03:28:20;100818.59;;;6.53;100.00
11830;BME280;5972;42.134;24.718;2022-12-29T03:30:49;100811.94;;;6.51;100.00
11830;BME280;5972;42.134;24.718;2022-12-29T03:33:19;100806.13;;;6.39;100.00
11830;BME280;5972;42.134;24.718;2022-12-29T03:35:49;100809.63;;;6.39;100.00
11830;BME280;5972;42.134;24.718;2022-12-29T03:38:19;100811.56;;;6.34;100.00
11830;BME280;5972;42.134;24.718;2022-12-29T03:40:52;100785.38;;;6.15;100.00
11830;BME280;5972;42.134;24.718;2022-12-29T03:43:20;100796.38;;;6.19;100.00
11830;BME280;5972;42.134;24.718;2022-12-29T03:45:47;100810.59;;;6.19;100.00
11830;BME280;5972;42.134;24.718;2022-12-29T03:48:14;100813.66;;;6.08;100.00
11830;BME280;5972;42.134;24.718;2022-12-29T03:50:42;100816.75;;;5.96;100.00
11830;BME280;5972;42.134;24.718;2022-12-29T03:53:09;100791.38;;;5.73;100.00
11830;BME280;5972;42.134;24.718;2022-12-29T03:55:35;100811.97;;;5.83;100.00
11830;BME280;5972;42.134;24.718;2022-12-29T03:58:02;100810.63;;;5.80;100.00
11830;BME280;5972;42.134;24.718;2022-12-29T04:00:29;100799.66;;;5.77;100.00
11830;BME280;5972;42.134;24.718;2022-12-29T04:02:56;100813.66;;;5.74;100.00
11830;BME280;5972;42.134;24.718;2022-12-29T04:05:22;100808.31;;;5.69;100.00
11830;BME280;5972;42.134;24.718;2022-12-29T04:07:51;100823.13;;;5.61;100.00
11830;BME280;5972;42.134;24.718;2022-12-29T04:10:17;100811.66;;;5.51;100.00
11830;BME280;5972;42.134;24.718;2022-12-29T04:12:44;100825.31;;;5.54;100.00
11830;BME280;5972;42.134;24.718;2022-12-29T04:15:12;100822.88;;;5.58;100.00
11830;BME280;5972;42.134;24.718;2022-12-29T04:17:38;100825.28;;;5.59;100.00
11830;BME280;5972;42.134;24.718;2022-12-29T04:20:06;100831.22;;;5.56;100.00
11830;BME280;5972;42.134;24.718;2022-12-29T04:22:59;100837.69;;;5.55;100.00
11830;BME280;5972;42.134;24.718;2022-12-29T04:25:25;100832.59;;;5.49;100.00
11830;BME280;5972;42.134;24.718;2022-12-29T04:27:52;100834.50;;;5.48;100.00
11830;BME280;5972;42.134;24.718;2022-12-29T04:30:19;100838.53;;;5.46;100.00
11830;BME280;5972;42.134;24.718;2022-12-29T04:32:46;100845.00;;;5.44;100.00
11830;BME280;5972;42.134;24.718;2022-12-29T04:35:13;100846.63;;;5.40;100.00
11830;BME280;5972;42.134;24.718;2022-12-29T04:37:39;100854.16;;;5.38;100.00
11830;BME280;5972;42.134;24.718;2022-12-29T04:40:09;100858.47;;;5.34;100.00
11830;BME280;5972;42.134;24.718;2022-12-29T04:42:36;100864.94;;;5.28;100.00
11830;BME280;5972;42.134;24.718;2022-12-29T04:45:03;100858.97;;;5.36;100.00
11830;BME280;5972;42.134;24.718;2022-12-29T04:47:30;100861.66;;;5.36;100.00
11830;BME280;5972;42.134;24.718;2022-12-29T04:49:57;100862.25;;;5.28;100.00
11830;BME280;5972;42.134;24.718;2022-12-29T04:52:23;100866.84;;;5.23;100.00
11830;BME280;5972;42.134;24.718;2022-12-29T04:54:50;100861.19;;;5.29;100.00
11830;BME280;5972;42.134;24.718;2022-12-29T04:57:18;100870.00;;;5.35;100.00
11830;BME280;5972;42.134;24.718;2022-12-29T04:59:45;100869.72;;;5.36;100.00
11830;BME280;5972;42.134;24.718;2022-12-29T05:02:12;100876.00;;;5.12;100.00
11830;BME280;5972;42.134;24.718;2022-12-29T05:04:39;100871.66;;;5.21;100.00
11830;BME280;5972;42.134;24.718;2022-12-29T05:07:05;100866.63;;;5.04;100.00
11830;BME280;5972;42.134;24.718;2022-12-29T05:09:32;100880.63;;;4.91;100.00
11830;BME280;5972;42.134;24.718;2022-12-29T05:11:59;100876.13;;;4.66;100.00
11830;BME280;5972;42.134;24.718;2022-12-29T05:14:27;100880.44;;;4.47;100.00
11830;BME280;5972;42.134;24.718;2022-12-29T05:20:16;100883.41;;;4.30;100.00
11830;BME280;5972;42.134;24.718;2022-12-29T05:22:43;100874.00;;;4.43;100.00
11830;BME280;5972;42.134;24.718;2022-12-29T05:25:09;100878.56;;;4.47;100.00
11830;BME280;5972;42.134;24.718;2022-12-29T05:27:36;100872.41;;;4.42;100.00
11830;BME280;5972;42.134;24.718;2022-12-29T05:30:06;100869.44;;;4.48;100.00
11830;BME280;5972;42.134;24.718;2022-12-29T05:32:33;100861.38;;;4.58;100.00
11830;BME280;5972;42.134;24.718;2022-12-29T05:35:00;100863.31;;;4.28;100.00
11830;BME280;5972;42.134;24.718;2022-12-29T05:37:27;100863.56;;;4.31;100.00
11830;BME280;5972;42.134;24.718;2022-12-29T05:39:53;100844.03;;;4.26;100.00
11830;BME280;5972;42.134;24.718;2022-12-29T05:42:20;100848.28;;;4.42;100.00
11830;BME280;5972;42.134;24.718;2022-12-29T05:44:47;100860.88;;;4.46;100.00
11830;BME280;5972;42.134;24.718;2022-12-29T05:47:20;100860.38;;;4.34;100.00
11830;BME280;5972;42.134;24.718;2022-12-29T05:49:47;100856.59;;;4.25;100.00
11830;BME280;5972;42.134;24.718;2022-12-29T05:52:41;100850.72;;;3.93;100.00
11830;BME280;5972;42.134;24.718;2022-12-29T05:55:09;100846.97;;;4.09;100.00
11830;BME280;5972;42.134;24.718;2022-12-29T05:57:36;100853.69;;;4.22;100.00
11830;BME280;5972;42.134;24.718;2022-12-29T06:00:04;100854.75;;;4.15;100.00
11830;BME280;5972;42.134;24.718;2022-12-29T06:02:32;100851.53;;;4.34;100.00
11830;BME280;5972;42.134;24.718;2022-12-29T06:04:59;100859.00;;;4.42;100.00
11830;BME280;5972;42.134;24.718;2022-12-29T06:07:26;100859.03;;;4.32;100.00
11830;BME280;5972;42.134;24.718;2022-12-29T06:09:53;100861.66;;;4.57;100.00
11830;BME280;5972;42.134;24.718;2022-12-29T06:12:19;100857.41;;;4.51;100.00
11830;BME280;5972;42.134;24.718;2022-12-29T06:14:46;100860.56;;;4.63;100.00
11830;BME280;5972;42.134;24.718;2022-12-29T06:17:13;100862.75;;;4.46;100.00
11830;BME280;5972;42.134;24.718;2022-12-29T06:19:41;100835.16;;;4.45;100.00
11830;BME280;5972;42.134;24.718;2022-12-29T06:22:09;100850.69;;;4.53;100.00
11830;BME280;5972;42.134;24.718;2022-12-29T06:24:37;100865.88;;;4.88;100.00
11830;BME280;5972;42.134;24.718;2022-12-29T06:27:04;100868.75;;;5.07;100.00
11830;BME280;5972;42.134;24.718;2022-12-29T06:29:31;100862.56;;;5.17;100.00
11830;BME280;5972;42.134;24.718;2022-12-29T06:31:58;100876.50;;;5.19;100.00
11830;BME280;5972;42.134;24.718;2022-12-29T06:34:25;100877.25;;;5.34;100.00
11830;BME280;5972;42.134;24.718;2022-12-29T06:36:53;100866.47;;;5.44;100.00
11830;BME280;5972;42.134;24.718;2022-12-29T06:39:20;100883.84;;;5.57;100.00
11830;BME280;5972;42.134;24.718;2022-12-29T06:41:46;100876.56;;;5.63;100.00
11830;BME280;5972;42.134;24.718;2022-12-29T06:44:13;100885.94;;;5.65;100.00
11830;BME280;5972;42.134;24.718;2022-12-29T06:46:40;100890.19;;;5.71;100.00
11830;BME280;5972;42.134;24.718;2022-12-29T06:49:07;100890.50;;;5.65;100.00
11830;BME280;5972;42.134;24.718;2022-12-29T06:51:34;100891.19;;;5.85;100.00
11830;BME280;5972;42.134;24.718;2022-12-29T06:54:02;100904.03;;;5.99;100.00
11830;BME280;5972;42.134;24.718;2022-12-29T06:56:29;100889.75;;;6.03;100.00
11830;BME280;5972;42.134;24.718;2022-12-29T06:58:56;100906.84;;;6.17;100.00
11830;BME280;5972;42.134;24.718;2022-12-29T07:01:25;100906.56;;;6.19;100.00
11830;BME280;5972;42.134;24.718;2022-12-29T07:03:52;100907.53;;;6.33;100.00
11830;BME280;5972;42.134;24.718;2022-12-29T07:06:19;100920.13;;;6.38;100.00
11830;BME280;5972;42.134;24.718;2022-12-29T07:08:46;100910.34;;;6.47;100.00
11830;BME280;5972;42.134;24.718;2022-12-29T07:11:15;100920.88;;;6.43;100.00
11830;BME280;5972;42.134;24.718;2022-12-29T07:13:42;100903.81;;;6.29;100.00
11830;BME280;5972;42.134;24.718;2022-12-29T07:16:09;100918.06;;;6.30;100.00
11830;BME280;5972;42.134;24.718;2022-12-29T07:18:36;100926.84;;;6.40;100.00
11830;BME280;5972;42.134;24.718;2022-12-29T07:21:03;100914.19;;;6.41;100.00
11830;BME280;5972;42.134;24.718;2022-12-29T07:23:31;100924.44;;;6.67;100.00
11830;BME280;5972;42.134;24.718;2022-12-29T07:26:01;100926.19;;;6.82;100.00
11830;BME280;5972;42.134;24.718;2022-12-29T07:28:30;100910.78;;;6.88;100.00
11830;BME280;5972;42.134;24.718;2022-12-29T07:30:57;100917.22;;;7.16;100.00
11830;BME280;5972;42.134;24.718;2022-12-29T07:33:25;100909.38;;;7.62;100.00
11830;BME280;5972;42.134;24.718;2022-12-29T07:35:52;100919.66;;;8.34;100.00
11830;BME280;5972;42.134;24.718;2022-12-29T07:38:19;100916.19;;;9.07;100.00
11830;BME280;5972;42.134;24.718;2022-12-29T07:40:46;100923.69;;;10.01;100.00
11830;BME280;5972;42.134;24.718;2022-12-29T07:43:12;100923.59;;;10.81;100.00
11830;BME280;5972;42.134;24.718;2022-12-29T07:45:41;100920.59;;;11.14;100.00
11830;BME280;5972;42.134;24.718;2022-12-29T07:48:08;100931.25;;;11.67;93.91
11830;BME280;5972;42.134;24.718;2022-12-29T07:50:35;100920.78;;;11.91;87.55
11830;BME280;5972;42.134;24.718;2022-12-29T07:53:02;100914.38;;;12.30;84.67
11830;BME280;5972;42.134;24.718;2022-12-29T07:55:29;100911.19;;;12.11;83.66
11830;BME280;5972;42.134;24.718;2022-12-29T07:57:56;100904.94;;;12.45;79.04
11830;BME280;5972;42.134;24.718;2022-12-29T08:00:23;100908.31;;;12.97;74.43
11830;BME280;5972;42.134;24.718;2022-12-29T08:02:51;100910.34;;;13.09;72.37
11830;BME280;5972;42.134;24.718;2022-12-29T08:05:18;100911.78;;;13.44;69.32
11830;BME280;5972;42.134;24.718;2022-12-29T08:07:45;100904.91;;;13.17;70.04
11830;BME280;5972;42.134;24.718;2022-12-29T08:10:13;100902.00;;;13.22;69.89
11830;BME280;5972;42.134;24.718;2022-12-29T08:12:41;100904.41;;;13.15;70.53
11830;BME280;5972;42.134;24.718;2022-12-29T08:15:10;100900.34;;;13.30;70.94
11830;BME280;5972;42.134;24.718;2022-12-29T08:17:38;100906.09;;;13.37;70.26
11830;BME280;5972;42.134;24.718;2022-12-29T08:20:07;100907.34;;;13.02;71.20
11830;BME280;5972;42.134;24.718;2022-12-29T08:22:34;100892.31;;;12.58;75.37
11830;BME280;5972;42.134;24.718;2022-12-29T08:25:01;100899.41;;;12.07;83.81
11830;BME280;5972;42.134;24.718;2022-12-29T08:27:28;100895.81;;;12.49;80.95
11830;BME280;5972;42.134;24.718;2022-12-29T08:29:55;100896.78;;;12.54;80.60
11830;BME280;5972;42.134;24.718;2022-12-29T08:32:22;100899.78;;;12.61;79.42
11830;BME280;5972;42.134;24.718;2022-12-29T08:34:49;100890.88;;;12.52;80.01
11830;BME280;5972;42.134;24.718;2022-12-29T08:37:17;100890.97;;;12.81;79.50
11830;BME280;5972;42.134;24.718;2022-12-29T08:39:44;100871.53;;;13.00;76.28
11830;BME280;5972;42.134;24.718;2022-12-29T08:42:11;100886.66;;;13.47;73.27
11830;BME280;5972;42.134;24.718;2022-12-29T08:44:37;100881.81;;;13.94;70.74
11830;BME280;5972;42.134;24.718;2022-12-29T08:47:04;100872.13;;;14.26;66.55
11830;BME280;5972;42.134;24.718;2022-12-29T08:49:31;100869.78;;;14.37;65.36
11830;BME280;5972;42.134;24.718;2022-12-29T08:51:58;100870.78;;;14.65;62.99
11830;BME280;5972;42.134;24.718;2022-12-29T08:54:26;100870.22;;;14.39;63.74
11830;BME280;5972;42.134;24.718;2022-12-29T08:56:53;100866.56;;;14.80;62.74
11830;BME280;5972;42.134;24.718;2022-12-29T08:59:20;100865.09;;;14.94;61.64
11830;BME280;5972;42.134;24.718;2022-12-29T09:01:47;100861.44;;;15.51;58.88
11830;BME280;5972;42.134;24.718;2022-12-29T09:04:14;100856.06;;;15.79;56.65
11830;BME280;5972;42.134;24.718;2022-12-29T09:06:40;100850.63;;;15.67;56.39
11830;BME280;5972;42.134;24.718;2022-12-29T09:09:07;100843.53;;;16.34;54.23
11830;BME280;5972;42.134;24.718;2022-12-29T09:11:35;100848.16;;;16.61;53.17
11830;BME280;5972;42.134;24.718;2022-12-29T09:14:03;100845.81;;;16.75;51.76
11830;BME280;5972;42.134;24.718;2022-12-29T09:16:29;100843.41;;;17.05;50.78
11830;BME280;5972;42.134;24.718;2022-12-29T09:18:56;100836.94;;;17.13;50.42
11830;BME280;5972;42.134;24.718;2022-12-29T09:21:23;100831.53;;;16.66;51.00
11830;BME280;5972;42.134;24.718;2022-12-29T09:23:50;100837.06;;;16.70;49.98
11830;BME280;5972;42.134;24.718;2022-12-29T09:26:17;100831.53;;;16.82;50.50
11830;BME280;5972;42.134;24.718;2022-12-29T09:28:45;100821.59;;;17.09;49.62
11830;BME280;5972;42.134;24.718;2022-12-29T09:31:12;100808.72;;;17.09;48.78
11830;BME280;5972;42.134;24.718;2022-12-29T09:33:39;100818.84;;;17.78;47.86
11830;BME280;5972;42.134;24.718;2022-12-29T09:36:08;100805.22;;;18.01;47.09
11830;BME280;5972;42.134;24.718;2022-12-29T09:38:35;100805.28;;;18.05;46.17
11830;BME280;5972;42.134;24.718;2022-12-29T09:41:06;100800.63;;;17.67;47.14
11830;BME280;5972;42.134;24.718;2022-12-29T09:43:53;100794.53;;;17.58;47.85
11830;BME280;5972;42.134;24.718;2022-12-29T09:46:25;100801.66;;;17.08;48.71
11830;BME280;5972;42.134;24.718;2022-12-29T09:48:59;100793.00;;;17.22;49.26
11830;BME280;5972;42.134;24.718;2022-12-29T09:51:31;100790.22;;;17.02;48.79
11830;BME280;5972;42.134;24.718;2022-12-29T09:54:02;100770.84;;;17.27;48.19
11830;BME280;5972;42.134;24.718;2022-12-29T09:56:34;100771.44;;;17.94;47.20
11830;BME280;5972;42.134;24.718;2022-12-29T09:59:08;100778.06;;;17.73;46.76
11830;BME280;5972;42.134;24.718;2022-12-29T10:01:45;100767.78;;;18.09;46.22
11830;BME280;5972;42.134;24.718;2022-12-29T10:04:16;100755.09;;;18.20;46.16
11830;BME280;5972;42.134;24.718;2022-12-29T10:06:46;100757.47;;;18.21;45.24
11830;BME280;5972;42.134;24.718;2022-12-29T10:09:20;100755.56;;;18.48;45.11
11830;BME280;5972;42.134;24.718;2022-12-29T10:12:03;100757.72;;;18.85;44.04
11830;BME280;5972;42.134;24.718;2022-12-29T10:14:55;100743.66;;;18.86;44.05
11830;BME280;5972;42.134;24.718;2022-12-29T10:17:33;100747.81;;;18.77;43.86
11830;BME280;5972;42.134;24.718;2022-12-29T10:20:18;100741.44;;;18.46;44.41
11830;BME280;5972;42.134;24.718;2022-12-29T10:23:09;100740.31;;;18.51;44.55
11830;BME280;5972;42.134;24.718;2022-12-29T10:25:39;100735.47;;;18.41;44.57
11830;BME280;5972;42.134;24.718;2022-12-29T10:28:17;100738.19;;;17.95;45.70
11830;BME280;5972;42.134;24.718;2022-12-29T10:30:47;100736.16;;;16.96;47.58
11830;BME280;5972;42.134;24.718;2022-12-29T10:33:18;100730.91;;;16.40;50.15
11830;BME280;5972;42.134;24.718;2022-12-29T10:35:47;100730.13;;;16.40;50.76
11830;BME280;5972;42.134;24.718;2022-12-29T10:38:20;100718.97;;;15.70;51.99
11830;BME280;5972;42.134;24.718;2022-12-29T10:40:52;100723.44;;;16.21;52.78
11830;BME280;5972;42.134;24.718;2022-12-29T10:43:25;100727.34;;;17.22;49.27
11830;BME280;5972;42.134;24.718;2022-12-29T10:45:55;100720.00;;;17.45;47.91
11830;BME280;5972;42.134;24.718;2022-12-29T10:48:25;100722.09;;;17.52;47.43
11830;BME280;5972;42.134;24.718;2022-12-29T10:50:57;100716.50;;;17.64;47.15
11830;BME280;5972;42.134;24.718;2022-12-29T10:53:27;100708.97;;;17.80;46.56
11830;BME280;5972;42.134;24.718;2022-12-29T10:55:59;100712.75;;;18.17;45.76
11830;BME280;5972;42.134;24.718;2022-12-29T10:58:28;100702.25;;;18.46;44.94
11830;BME280;5972;42.134;24.718;2022-12-29T11:00:58;100696.81;;;18.23;44.85
11830;BME280;5972;42.134;24.718;2022-12-29T11:03:44;100700.50;;;18.34;44.74
11830;BME280;5972;42.134;24.718;2022-12-29T11:06:17;100698.00;;;18.48;44.42
11830;BME280;5972;42.134;24.718;2022-12-29T11:08:54;100690.03;;;18.40;44.65
11830;BME280;5972;42.134;24.718;2022-12-29T11:11:24;100689.97;;;18.36;44.61
11830;BME280;5972;42.134;24.718;2022-12-29T11:13:58;100685.31;;;17.91;45.57
11830;BME280;5972;42.134;24.718;2022-12-29T11:16:31;100679.88;;;16.95;47.38
11830;BME280;5972;42.134;24.718;2022-12-29T11:19:00;100682.47;;;16.37;49.33
11830;BME280;5972;42.134;24.718;2022-12-29T11:21:32;100675.75;;;16.35;50.25
11830;BME280;5972;42.134;24.718;2022-12-29T11:24:00;100673.91;;;16.23;51.31
11830;BME280;5972;42.134;24.718;2022-12-29T11:26:28;100676.31;;;14.09;61.44
11830;BME280;5972;42.134;24.718;2022-12-29T11:29:20;100680.19;;;15.09;58.48
11830;BME280;5972;42.134;24.718;2022-12-29T11:31:49;100673.72;;;15.13;57.97
11830;BME280;5972;42.134;24.718;2022-12-29T11:34:19;100664.53;;;15.06;57.47
11830;BME280;5972;42.134;24.718;2022-12-29T11:36:46;100666.03;;;15.03;58.36
11830;BME280;5972;42.134;24.718;2022-12-29T11:39:36;100670.50;;;14.83;60.22
11830;BME280;5972;42.134;24.718;2022-12-29T11:42:03;100672.03;;;15.09;58.61
11830;BME280;5972;42.134;24.718;2022-12-29T11:44:37;100662.03;;;15.01;59.06
11830;BME280;5972;42.134;24.718;2022-12-29T11:47:19;100662.31;;;15.23;58.22
11830;BME280;5972;42.134;24.718;2022-12-29T11:49:49;100655.25;;;15.22;57.83
11830;BME280;5972;42.134;24.718;2022-12-29T11:52:21;100645.69;;;15.28;57.27
11830;BME280;5972;42.134;24.718;2022-12-29T11:54:49;100641.34;;;15.12;58.47
11830;BME280;5972;42.134;24.718;2022-12-29T11:57:17;100646.50;;;15.29;57.73
11830;BME280;5972;42.134;24.718;2022-12-29T11:59:49;100640.44;;;15.35;57.10
11830;BME280;5972;42.134;24.718;2022-12-29T12:02:31;100643.84;;;15.32;56.77
11830;BME280;5972;42.134;24.718;2022-12-29T12:05:05;100627.31;;;14.45;59.10
11830;BME280;5972;42.134;24.718;2022-12-29T12:07:41;100639.28;;;13.59;69.19
11830;BME280;5972;42.134;24.718;2022-12-29T12:10:17;100633.25;;;13.66;69.43
11830;BME280;5972;42.134;24.718;2022-12-29T12:12:48;100629.81;;;13.45;70.66
11830;BME280;5972;42.134;24.718;2022-12-29T12:15:21;100629.91;;;13.36;72.61
11830;BME280;5972;42.134;24.718;2022-12-29T12:17:53;100626.47;;;13.27;73.54
11830;BME280;5972;42.134;24.718;2022-12-29T12:20:24;100625.84;;;13.42;73.72
11830;BME280;5972;42.134;24.718;2022-12-29T12:22:59;100618.28;;;13.48;72.90
11830;BME280;5972;42.134;24.718;2022-12-29T12:25:33;100618.66;;;13.25;74.75
11830;BME280;5972;42.134;24.718;2022-12-29T12:28:05;100616.84;;;13.29;74.99
11830;BME280;5972;42.134;24.718;2022-12-29T12:30:38;100611.44;;;13.09;77.09
11830;BME280;5972;42.134;24.718;2022-12-29T12:33:15;100620.25;;;13.06;77.75
11830;BME280;5972;42.134;24.718;2022-12-29T12:35:51;100611.50;;;13.00;78.29
11830;BME280;5972;42.134;24.718;2022-12-29T12:38:26;100607.25;;;13.11;78.06
11830;BME280;5972;42.134;24.718;2022-12-29T12:41:05;100608.38;;;13.43;75.54
11830;BME280;5972;42.134;24.718;2022-12-29T12:43:43;100607.19;;;13.53;74.02
11830;BME280;5972;42.134;24.718;2022-12-29T12:46:25;100605.91;;;13.50;72.17
11830;BME280;5972;42.134;24.718;2022-12-29T12:49:22;100610.28;;;13.30;75.19
11830;BME280;5972;42.134;24.718;2022-12-29T12:52:00;100607.25;;;13.11;76.16
11830;BME280;5972;42.134;24.718;2022-12-29T12:54:40;100589.97;;;12.95;77.51
11830;BME280;5972;42.134;24.718;2022-12-29T12:57:18;100612.69;;;13.11;78.17
11830;BME280;5972;42.134;24.718;2022-12-29T12:59:56;100603.88;;;12.93;78.51
11830;BME280;5972;42.134;24.718;2022-12-29T13:02:36;100607.66;;;13.01;79.96
11830;BME280;5972;42.134;24.718;2022-12-29T13:05:24;100614.09;;;12.97;79.00
11830;BME280;5972;42.134;24.718;2022-12-29T13:08:18;100605.75;;;12.81;81.62
11830;BME280;5972;42.134;24.718;2022-12-29T13:10:52;100610.47;;;12.93;81.95
11830;BME280;5972;42.134;24.718;2022-12-29T13:13:47;100607.06;;;13.16;78.97
11830;BME280;5972;42.134;24.718;2022-12-29T13:16:23;100608.06;;;12.91;79.86
11830;BME280;5972;42.134;24.718;2022-12-29T13:18:59;100618.59;;;12.51;85.57
11830;BME280;5972;42.134;24.718;2022-12-29T13:21:37;100598.47;;;12.73;83.29